createdAt,value
2018-12-02T00:00:54.925Z,51.52
2018-12-02T00:01:58.397Z,51.29
2018-12-02T00:03:03.845Z,51.24
2018-12-02T00:04:07.639Z,51.07
2018-12-02T00:05:11.123Z,51.63
2018-12-02T00:06:14.576Z,51.23
2018-12-02T00:07:18.094Z,51.21
2018-12-02T00:08:21.563Z,51.94
2018-12-02T00:09:25.005Z,51.43
2018-12-02T00:10:28.498Z,51.80
2018-12-02T00:11:31.906Z,51.91
2018-12-02T00:12:35.263Z,51.81
2018-12-02T00:13:38.656Z,51.84
2018-12-02T00:14:42.107Z,51.99
2018-12-02T00:15:45.531Z,51.85
2018-12-02T00:16:49.018Z,52.46
2018-12-02T00:17:55.516Z,51.76
2018-12-02T00:18:58.933Z,52.30
2018-12-02T00:20:02.351Z,52.32
2018-12-02T00:21:06.157Z,52.27
2018-12-02T00:22:09.615Z,52.83
2018-12-02T00:23:13.045Z,52.52
2018-12-02T00:24:16.511Z,52.42
2018-12-02T00:25:20.000Z,52.47
2018-12-02T00:26:23.418Z,52.50
2018-12-02T00:27:26.859Z,53.20
2018-12-02T00:28:30.325Z,53.16
2018-12-02T00:29:33.756Z,52.68
2018-12-02T00:30:37.224Z,52.83
2018-12-02T00:31:40.662Z,53.20
2018-12-02T00:32:44.133Z,53.49
2018-12-02T00:33:47.555Z,52.95
2018-12-02T00:34:51.081Z,53.65
2018-12-02T00:35:54.496Z,53.38
2018-12-02T00:36:57.915Z,53.20
2018-12-02T00:38:02.316Z,53.15
2018-12-02T00:39:06.603Z,53.23
2018-12-02T00:40:11.313Z,53.49
2018-12-02T00:41:14.743Z,53.67
2018-12-02T00:42:18.222Z,53.67
2018-12-02T00:43:21.624Z,53.83
2018-12-02T00:44:25.049Z,53.12
2018-12-02T00:45:30.859Z,53.17
2018-12-02T00:46:34.315Z,53.72
2018-12-02T00:47:37.726Z,53.64
2018-12-02T00:48:41.153Z,53.42
2018-12-02T00:49:44.594Z,53.81
2018-12-02T00:50:47.973Z,53.45
2018-12-02T00:51:51.387Z,53.62
2018-12-02T00:52:56.025Z,53.34
2018-12-02T00:53:59.471Z,53.58
2018-12-02T00:55:02.920Z,53.54
2018-12-02T00:56:05.148Z,53.40
2018-12-02T00:57:08.583Z,52.79
2018-12-02T00:58:11.970Z,53.26
2018-12-02T00:59:15.375Z,52.84
2018-12-02T01:00:18.842Z,52.72
2018-12-02T01:01:22.226Z,52.98
2018-12-02T01:02:25.650Z,52.91
2018-12-02T01:03:29.056Z,53.39
2018-12-02T01:04:32.442Z,52.99
2018-12-02T01:05:35.887Z,52.60
2018-12-02T01:06:39.286Z,53.29
2018-12-02T01:07:42.734Z,52.82
2018-12-02T01:08:46.125Z,53.38
2018-12-02T01:09:49.551Z,52.79
2018-12-02T01:10:52.999Z,53.19
2018-12-02T01:11:56.428Z,53.75
2018-12-02T01:13:00.141Z,53.71
2018-12-02T01:14:03.562Z,53.14
2018-12-02T01:15:09.965Z,53.09
2018-12-02T01:16:13.349Z,53.52
2018-12-02T01:17:16.821Z,53.63
2018-12-02T01:18:20.272Z,53.46
2018-12-02T01:19:23.658Z,53.40
2018-12-02T01:20:27.105Z,53.71
2018-12-02T01:21:30.629Z,53.48
2018-12-02T01:22:34.024Z,53.63
2018-12-02T01:23:37.402Z,53.56
2018-12-02T01:24:40.791Z,53.55
2018-12-02T01:25:44.199Z,53.59
2018-12-02T01:26:47.583Z,53.92
2018-12-02T01:27:50.991Z,54.20
2018-12-02T01:28:54.414Z,54.27
2018-12-02T01:29:57.813Z,53.82
2018-12-02T01:31:01.198Z,53.92
2018-12-02T01:32:04.651Z,54.28
2018-12-02T01:33:08.149Z,53.55
2018-12-02T01:34:11.544Z,53.66
2018-12-02T01:35:16.009Z,54.16
2018-12-02T01:36:19.430Z,54.01
2018-12-02T01:37:22.841Z,53.85
2018-12-02T01:38:26.230Z,54.45
2018-12-02T01:39:29.642Z,54.13
2018-12-02T01:40:33.031Z,54.50
2018-12-02T01:41:36.458Z,53.95
2018-12-02T01:42:39.918Z,53.85
2018-12-02T01:43:43.334Z,54.00
2018-12-02T01:44:46.818Z,54.76
2018-12-02T01:45:50.413Z,54.56
2018-12-02T01:46:53.854Z,54.09
2018-12-02T01:47:57.327Z,54.50
2018-12-02T01:49:00.719Z,54.59
2018-12-02T01:50:04.984Z,54.08
2018-12-02T01:51:08.616Z,54.22
2018-12-02T01:52:12.000Z,55.07
2018-12-02T01:53:15.422Z,54.93
2018-12-02T01:54:18.806Z,54.78
2018-12-02T01:55:22.301Z,54.28
2018-12-02T01:56:25.652Z,54.40
2018-12-02T01:57:29.084Z,54.26
2018-12-02T01:58:32.484Z,54.96
2018-12-02T01:59:35.931Z,54.46
2018-12-02T02:00:39.358Z,54.93
2018-12-02T02:01:42.749Z,54.78
2018-12-02T02:02:46.171Z,54.47
2018-12-02T02:03:49.619Z,54.77
2018-12-02T02:04:53.044Z,54.80
2018-12-02T02:05:56.421Z,54.91
2018-12-02T02:06:59.824Z,54.86
2018-12-02T02:08:03.251Z,55.03
2018-12-02T02:09:09.160Z,55.06
2018-12-02T02:10:17.076Z,54.52
2018-12-02T02:11:20.499Z,55.08
2018-12-02T02:12:23.923Z,55.00
2018-12-02T02:13:27.335Z,54.81
2018-12-02T02:14:30.740Z,54.87
2018-12-02T02:15:34.185Z,54.47
2018-12-02T02:16:37.607Z,54.50
2018-12-02T02:17:41.114Z,55.27
2018-12-02T02:18:44.536Z,55.14
2018-12-02T02:19:47.964Z,54.96
2018-12-02T02:20:51.384Z,54.70
2018-12-02T02:21:54.870Z,55.21
2018-12-02T02:22:58.279Z,55.12
2018-12-02T02:24:01.653Z,54.96
2018-12-02T02:25:06.119Z,54.96
2018-12-02T02:26:09.526Z,54.92
2018-12-02T02:27:12.919Z,55.22
2018-12-02T02:28:16.375Z,55.51
2018-12-02T02:29:19.898Z,54.69
2018-12-02T02:30:24.770Z,54.61
2018-12-02T02:31:28.160Z,55.07
2018-12-02T02:32:31.610Z,54.55
2018-12-02T02:33:35.020Z,54.96
2018-12-02T02:34:38.439Z,55.03
2018-12-02T02:35:41.838Z,54.68
2018-12-02T02:36:45.417Z,54.93
2018-12-02T02:37:49.949Z,55.47
2018-12-02T02:38:53.532Z,55.44
2018-12-02T02:39:56.900Z,55.70
2018-12-02T02:41:00.327Z,55.66
2018-12-02T02:42:03.758Z,55.91
2018-12-02T02:43:07.182Z,55.33
2018-12-02T02:44:10.583Z,55.45
2018-12-02T02:45:14.689Z,56.02
2018-12-02T02:46:18.201Z,56.16
2018-12-02T02:47:21.604Z,55.43
2018-12-02T02:48:25.030Z,55.34
2018-12-02T02:49:28.418Z,55.40
2018-12-02T02:50:31.852Z,55.50
2018-12-02T02:51:35.288Z,55.53
2018-12-02T02:52:39.473Z,56.05
2018-12-02T02:53:42.941Z,55.86
2018-12-02T02:54:46.544Z,56.05
2018-12-02T02:55:50.630Z,56.21
2018-12-02T02:56:54.035Z,55.94
2018-12-02T02:57:57.794Z,55.83
2018-12-02T02:59:01.172Z,54.97
2018-12-02T03:00:21.116Z,55.25
2018-12-02T03:01:24.522Z,55.11
2018-12-02T03:02:27.917Z,54.85
2018-12-02T03:03:31.360Z,55.19
2018-12-02T03:04:34.787Z,54.64
2018-12-02T03:05:38.200Z,54.67
2018-12-02T03:06:41.600Z,54.74
2018-12-02T03:07:45.076Z,54.79
2018-12-02T03:08:48.486Z,54.98
2018-12-02T03:09:51.934Z,54.78
2018-12-02T03:10:55.359Z,54.73
2018-12-02T03:11:59.037Z,54.67
2018-12-02T03:13:02.454Z,54.95
2018-12-02T03:14:05.907Z,54.83
2018-12-02T03:15:11.771Z,55.15
2018-12-02T03:16:15.164Z,55.29
2018-12-02T03:17:18.573Z,54.83
2018-12-02T03:18:21.967Z,54.83
2018-12-02T03:19:25.361Z,55.38
2018-12-02T03:20:28.803Z,55.02
2018-12-02T03:21:32.201Z,55.25
2018-12-02T03:22:35.766Z,54.85
2018-12-02T03:23:39.207Z,55.34
2018-12-02T03:24:42.637Z,55.61
2018-12-02T03:25:46.147Z,55.31
2018-12-02T03:26:49.571Z,56.03
2018-12-02T03:27:53.102Z,55.47
2018-12-02T03:28:56.476Z,55.13
2018-12-02T03:29:59.865Z,55.50
2018-12-02T03:31:03.306Z,56.24
2018-12-02T03:32:06.782Z,55.94
2018-12-02T03:33:10.272Z,55.67
2018-12-02T03:34:13.655Z,55.50
2018-12-02T03:35:19.150Z,56.10
2018-12-02T03:36:22.555Z,55.58
2018-12-02T03:37:25.968Z,55.69
2018-12-02T03:38:30.050Z,55.38
2018-12-02T03:39:33.449Z,55.63
2018-12-02T03:40:36.833Z,55.87
2018-12-02T03:41:40.286Z,55.82
2018-12-02T03:42:43.761Z,55.77
2018-12-02T03:43:47.163Z,56.22
2018-12-02T03:44:50.580Z,56.08
2018-12-02T03:45:54.001Z,55.88
2018-12-02T03:46:57.416Z,56.23
2018-12-02T03:48:00.861Z,56.33
2018-12-02T03:49:04.342Z,55.70
2018-12-02T03:50:24.052Z,56.22
2018-12-02T03:51:27.498Z,55.81
2018-12-02T03:52:30.898Z,56.04
2018-12-02T03:53:34.329Z,56.81
2018-12-02T03:54:37.753Z,56.03
2018-12-02T03:55:41.174Z,55.95
2018-12-02T03:56:47.592Z,56.45
2018-12-02T03:57:51.015Z,55.88
2018-12-02T03:58:54.411Z,55.92
2018-12-02T03:59:57.795Z,56.01
2018-12-02T04:01:01.197Z,56.29
2018-12-02T04:02:04.640Z,56.39
2018-12-02T04:03:08.063Z,56.06
2018-12-02T04:04:11.460Z,55.90
2018-12-02T04:05:16.551Z,55.93
2018-12-02T04:06:20.079Z,55.84
2018-12-02T04:07:23.495Z,55.64
2018-12-02T04:08:26.938Z,55.40
2018-12-02T04:09:30.381Z,55.69
2018-12-02T04:10:33.745Z,55.81
2018-12-02T04:11:38.374Z,55.76
2018-12-02T04:12:41.883Z,55.17
2018-12-02T04:13:45.313Z,55.62
2018-12-02T04:14:48.800Z,55.17
2018-12-02T04:15:52.200Z,55.50
2018-12-02T04:16:55.634Z,55.75
2018-12-02T04:17:59.025Z,55.40
2018-12-02T04:19:02.445Z,55.79
2018-12-02T04:20:07.826Z,55.69
2018-12-02T04:21:11.227Z,55.71
2018-12-02T04:22:14.607Z,55.68
2018-12-02T04:23:18.071Z,55.83
2018-12-02T04:24:21.600Z,55.78
2018-12-02T04:25:26.099Z,55.78
2018-12-02T04:26:29.533Z,56.07
2018-12-02T04:27:32.929Z,55.70
2018-12-02T04:28:36.373Z,55.42
2018-12-02T04:29:39.836Z,55.67
2018-12-02T04:30:43.224Z,56.05
2018-12-02T04:31:46.599Z,55.79
2018-12-02T04:32:51.900Z,55.46
2018-12-02T04:33:55.328Z,56.10
2018-12-02T04:34:58.743Z,55.52
2018-12-02T04:36:02.114Z,56.08
2018-12-02T04:37:05.538Z,55.88
2018-12-02T04:38:08.967Z,55.71
2018-12-02T04:39:12.377Z,55.97
2018-12-02T04:40:15.857Z,56.33
2018-12-02T04:41:19.301Z,56.56
2018-12-02T04:42:22.694Z,56.40
2018-12-02T04:43:26.092Z,55.83
2018-12-02T04:44:29.508Z,56.50
2018-12-02T04:45:32.923Z,55.89
2018-12-02T04:46:36.343Z,55.75
2018-12-02T04:47:39.769Z,56.15
2018-12-02T04:48:43.214Z,55.72
2018-12-02T04:49:46.592Z,55.81
2018-12-02T04:50:50.042Z,56.38
2018-12-02T04:51:53.450Z,55.81
2018-12-02T04:52:56.845Z,55.92
2018-12-02T04:54:00.253Z,55.88
2018-12-02T04:55:03.685Z,56.46
2018-12-02T04:56:07.119Z,56.06
2018-12-02T04:57:10.541Z,56.12
2018-12-02T04:58:13.942Z,55.80
2018-12-02T04:59:17.368Z,55.90
2018-12-02T05:00:21.329Z,55.95
2018-12-02T05:01:24.760Z,55.99
2018-12-02T05:02:28.152Z,56.16
2018-12-02T05:03:31.611Z,56.54
2018-12-02T05:04:34.988Z,56.17
2018-12-02T05:05:38.398Z,56.51
2018-12-02T05:06:41.833Z,56.43
2018-12-02T05:07:45.354Z,55.58
2018-12-02T05:08:48.770Z,55.67
2018-12-02T05:09:52.159Z,56.09
2018-12-02T05:10:55.678Z,55.33
2018-12-02T05:11:59.093Z,55.27
2018-12-02T05:13:02.486Z,55.60
2018-12-02T05:14:05.953Z,55.37
2018-12-02T05:15:13.773Z,55.71
2018-12-02T05:16:17.239Z,55.01
2018-12-02T05:17:20.683Z,55.01
2018-12-02T05:18:24.161Z,55.47
2018-12-02T05:19:27.554Z,55.19
2018-12-02T05:20:30.939Z,55.21
2018-12-02T05:21:34.481Z,55.41
2018-12-02T05:22:37.923Z,55.25
2018-12-02T05:23:41.299Z,55.58
2018-12-02T05:24:44.730Z,55.84
2018-12-02T05:25:48.393Z,55.52
2018-12-02T05:26:51.874Z,55.49
2018-12-02T05:27:55.419Z,55.72
2018-12-02T05:28:58.801Z,55.92
2018-12-02T05:30:02.273Z,56.41
2018-12-02T05:31:06.151Z,56.22
2018-12-02T05:32:09.585Z,56.47
2018-12-02T05:33:12.978Z,56.48
2018-12-02T05:34:16.373Z,56.23
2018-12-02T05:35:19.789Z,55.92
2018-12-02T05:36:23.206Z,56.26
2018-12-02T05:37:26.624Z,55.98
2018-12-02T05:38:30.114Z,56.30
2018-12-02T05:39:33.541Z,56.24
2018-12-02T05:40:36.952Z,56.28
2018-12-02T05:42:49.424Z,56.55
2018-12-02T05:43:52.947Z,56.32
2018-12-02T05:44:56.433Z,56.46
2018-12-02T05:45:59.847Z,56.69
2018-12-02T05:47:03.255Z,56.38
2018-12-02T05:48:06.711Z,56.75
2018-12-02T05:49:10.084Z,56.08
2018-12-02T05:50:17.571Z,56.02
2018-12-02T05:51:21.015Z,56.67
2018-12-02T05:52:24.406Z,56.19
2018-12-02T05:53:27.860Z,56.51
2018-12-02T05:54:31.253Z,56.21
2018-12-02T05:55:36.910Z,56.84
2018-12-02T05:56:40.291Z,56.19
2018-12-02T05:57:43.957Z,56.09
2018-12-02T05:58:47.391Z,56.29
2018-12-02T05:59:50.784Z,56.73
2018-12-02T06:00:54.210Z,56.53
2018-12-02T06:01:57.633Z,56.43
2018-12-02T06:03:01.059Z,57.00
2018-12-02T06:04:04.554Z,56.90
2018-12-02T06:05:09.303Z,56.67
2018-12-02T06:06:12.748Z,56.95
2018-12-02T06:07:16.225Z,56.93
2018-12-02T06:08:19.644Z,57.14
2018-12-02T06:09:23.109Z,57.07
2018-12-02T06:10:26.501Z,56.21
2018-12-02T06:11:29.858Z,56.80
2018-12-02T06:12:33.276Z,56.86
2018-12-02T06:13:36.688Z,56.31
2018-12-02T06:14:40.118Z,55.80
2018-12-02T06:15:43.512Z,56.03
2018-12-02T06:16:46.920Z,55.82
2018-12-02T06:17:50.607Z,55.68
2018-12-02T06:18:53.991Z,56.40
2018-12-02T06:19:57.427Z,55.90
2018-12-02T06:21:00.877Z,55.73
2018-12-02T06:22:04.321Z,55.87
2018-12-02T06:23:07.788Z,56.32
2018-12-02T06:24:11.222Z,55.48
2018-12-02T06:25:14.669Z,55.46
2018-12-02T06:26:18.112Z,55.92
2018-12-02T06:27:21.560Z,55.86
2018-12-02T06:28:25.087Z,55.74
2018-12-02T06:29:28.489Z,56.58
2018-12-02T06:30:31.906Z,55.86
2018-12-02T06:31:35.293Z,56.42
2018-12-02T06:32:38.761Z,56.38
2018-12-02T06:33:42.176Z,56.57
2018-12-02T06:34:45.566Z,56.28
2018-12-02T06:35:49.014Z,56.17
2018-12-02T06:36:52.377Z,56.52
2018-12-02T06:37:56.652Z,55.98
2018-12-02T06:39:00.071Z,56.21
2018-12-02T06:40:03.836Z,56.72
2018-12-02T06:41:07.252Z,56.29
2018-12-02T06:42:10.657Z,56.53
2018-12-02T06:43:14.063Z,56.20
2018-12-02T06:44:17.459Z,56.41
2018-12-02T06:45:21.475Z,56.73
2018-12-02T06:46:24.889Z,56.84
2018-12-02T06:47:28.268Z,56.28
2018-12-02T06:48:31.691Z,56.89
2018-12-02T06:49:35.090Z,56.97
2018-12-02T06:50:38.529Z,56.69
2018-12-02T06:51:42.021Z,57.12
2018-12-02T06:52:45.420Z,56.43
2018-12-02T06:53:48.802Z,56.72
2018-12-02T06:55:01.402Z,56.85
2018-12-02T06:56:13.977Z,56.90
2018-12-02T06:57:22.230Z,57.14
2018-12-02T07:00:49.542Z,56.85
2018-12-02T07:01:59.279Z,57.03
2018-12-02T07:03:21.703Z,56.85
2018-12-02T07:04:32.197Z,57.08
2018-12-02T07:05:39.102Z,56.94
2018-12-02T07:06:42.520Z,57.55
2018-12-02T07:07:45.971Z,56.91
2018-12-02T07:08:49.386Z,57.41
2018-12-02T07:09:52.768Z,56.93
2018-12-02T07:10:56.225Z,57.15
2018-12-02T07:11:59.637Z,57.61
2018-12-02T07:13:03.027Z,57.40
2018-12-02T07:14:06.432Z,57.42
2018-12-02T07:15:09.875Z,57.57
2018-12-02T07:16:13.265Z,57.40
2018-12-02T07:17:16.659Z,57.06
2018-12-02T07:18:24.377Z,56.76
2018-12-02T07:19:41.651Z,56.48
2018-12-02T07:20:51.067Z,57.04
2018-12-02T07:22:00.615Z,56.52
2018-12-02T07:23:09.435Z,56.32
2018-12-02T07:24:16.725Z,56.66
2018-12-02T07:25:23.017Z,56.87
2018-12-02T07:26:30.076Z,57.06
2018-12-02T07:27:33.491Z,56.68
2018-12-02T07:28:36.889Z,57.03
2018-12-02T07:29:40.370Z,56.61
2018-12-02T07:30:43.767Z,56.69
2018-12-02T07:31:47.176Z,56.23
2018-12-02T07:32:50.567Z,56.64
2018-12-02T07:33:53.987Z,56.24
2018-12-02T07:34:57.379Z,57.10
2018-12-02T07:36:00.763Z,56.88
2018-12-02T07:37:13.612Z,57.13
2018-12-02T07:38:28.841Z,57.06
2018-12-02T07:40:39.168Z,57.10
2018-12-02T07:41:42.570Z,57.21
2018-12-02T07:42:45.977Z,57.75
2018-12-02T07:43:49.411Z,57.26
2018-12-02T07:44:52.899Z,57.21
2018-12-02T07:45:56.339Z,57.47
2018-12-02T07:46:59.752Z,57.15
2018-12-02T07:48:03.178Z,57.31
2018-12-02T07:49:06.599Z,57.90
2018-12-02T07:50:10.302Z,57.44
2018-12-02T07:51:13.694Z,57.81
2018-12-02T07:52:17.097Z,58.10
2018-12-02T07:53:20.538Z,57.39
2018-12-02T07:54:23.957Z,57.76
2018-12-02T07:55:27.332Z,57.50
2018-12-02T07:56:30.723Z,57.93
2018-12-02T07:57:34.119Z,58.08
2018-12-02T07:58:37.529Z,57.96
2018-12-02T07:59:40.897Z,57.88
2018-12-02T08:00:44.990Z,58.03
2018-12-02T08:01:48.467Z,58.24
2018-12-02T08:02:51.918Z,58.25
2018-12-02T08:03:55.350Z,57.65
2018-12-02T08:04:58.801Z,57.74
2018-12-02T08:06:02.201Z,57.56
2018-12-02T08:07:06.036Z,57.51
2018-12-02T08:08:09.792Z,57.54
2018-12-02T08:09:13.219Z,57.81
2018-12-02T08:10:17.806Z,58.02
2018-12-02T08:11:21.241Z,57.80
2018-12-02T08:12:24.749Z,57.93
2018-12-02T08:13:28.187Z,57.88
2018-12-02T08:14:31.644Z,57.92
2018-12-02T08:15:35.032Z,58.08
2018-12-02T08:16:38.459Z,57.79
2018-12-02T08:17:41.948Z,58.14
2018-12-02T08:18:45.370Z,57.49
2018-12-02T08:19:48.848Z,57.51
2018-12-02T08:20:52.340Z,57.60
2018-12-02T08:21:55.791Z,57.57
2018-12-02T08:22:59.291Z,57.79
2018-12-02T08:24:02.838Z,57.05
2018-12-02T08:25:09.406Z,57.22
2018-12-02T08:26:12.836Z,57.47
2018-12-02T08:27:16.299Z,57.27
2018-12-02T08:28:19.807Z,56.92
2018-12-02T08:29:23.216Z,56.81
2018-12-02T08:30:26.884Z,57.37
2018-12-02T08:31:30.249Z,57.78
2018-12-02T08:32:33.687Z,57.01
2018-12-02T08:33:37.134Z,57.06
2018-12-02T08:34:40.536Z,57.00
2018-12-02T08:35:43.974Z,57.07
2018-12-02T08:36:47.444Z,57.00
2018-12-02T08:37:52.726Z,57.24
2018-12-02T08:38:56.177Z,57.73
2018-12-02T08:39:59.608Z,57.00
2018-12-02T08:41:03.071Z,57.41
2018-12-02T08:42:06.540Z,57.50
2018-12-02T08:43:09.986Z,57.69
2018-12-02T08:44:13.462Z,57.54
2018-12-02T08:45:17.938Z,57.52
2018-12-02T08:46:21.368Z,57.57
2018-12-02T08:47:24.837Z,57.16
2018-12-02T08:48:28.271Z,57.71
2018-12-02T08:49:31.723Z,57.15
2018-12-02T08:50:35.160Z,57.30
2018-12-02T08:51:38.575Z,57.30
2018-12-02T08:52:42.041Z,57.25
2018-12-02T08:53:45.552Z,58.05
2018-12-02T08:54:49.021Z,57.50
2018-12-02T08:55:52.454Z,57.72
2018-12-02T08:56:55.905Z,57.84
2018-12-02T08:57:59.395Z,57.90
2018-12-02T08:59:02.949Z,57.75
2018-12-02T09:00:09.935Z,57.65
2018-12-02T09:01:13.419Z,57.13
2018-12-02T09:02:16.787Z,57.56
2018-12-02T09:03:20.267Z,57.47
2018-12-02T09:04:23.701Z,57.91
2018-12-02T09:05:27.250Z,57.80
2018-12-02T09:06:30.636Z,57.41
2018-12-02T09:07:34.044Z,57.82
2018-12-02T09:08:37.473Z,57.30
2018-12-02T09:09:40.909Z,57.42
2018-12-02T09:10:46.273Z,57.68
2018-12-02T09:11:48.147Z,57.78
2018-12-02T09:12:53.091Z,57.81
2018-12-02T09:13:56.520Z,57.37
2018-12-02T09:14:59.972Z,57.72
2018-12-02T09:16:03.440Z,57.55
2018-12-02T09:17:07.344Z,57.99
2018-12-02T09:18:11.338Z,58.02
2018-12-02T09:19:14.885Z,57.75
2018-12-02T09:20:21.352Z,58.46
2018-12-02T09:21:24.855Z,58.47
2018-12-02T09:22:28.355Z,58.18
2018-12-02T09:23:31.803Z,57.74
2018-12-02T09:24:35.298Z,57.87
2018-12-02T09:25:38.777Z,57.77
2018-12-02T09:26:42.384Z,57.53
2018-12-02T09:27:45.967Z,57.18
2018-12-02T09:28:49.799Z,57.47
2018-12-02T09:29:53.554Z,57.33
2018-12-02T09:30:57.046Z,57.46
2018-12-02T09:32:00.454Z,57.01
2018-12-02T09:33:03.917Z,58.04
2018-12-02T09:34:07.312Z,57.55
2018-12-02T09:35:11.398Z,57.39
2018-12-02T09:36:14.820Z,56.71
2018-12-02T09:37:18.237Z,56.09
2018-12-02T09:38:22.008Z,55.40
2018-12-02T09:39:25.538Z,55.35
2018-12-02T09:40:28.966Z,55.09
2018-12-02T09:41:32.368Z,55.31
2018-12-02T09:42:35.926Z,54.22
2018-12-02T09:43:39.456Z,54.53
2018-12-02T09:44:42.998Z,54.11
2018-12-02T09:45:46.612Z,54.13
2018-12-02T09:46:50.093Z,54.11
2018-12-02T09:47:54.319Z,53.67
2018-12-02T09:48:57.759Z,53.73
2018-12-02T09:50:01.738Z,53.74
2018-12-02T09:51:05.555Z,54.14
2018-12-02T09:52:09.009Z,53.99
2018-12-02T09:53:12.456Z,53.86
2018-12-02T09:54:15.830Z,53.28
2018-12-02T09:55:44.264Z,53.12
2018-12-02T09:56:47.747Z,53.10
2018-12-02T09:57:52.014Z,53.51
2018-12-02T09:58:55.419Z,53.39
2018-12-02T09:59:58.885Z,53.42
2018-12-02T10:01:02.423Z,54.14
2018-12-02T10:02:06.436Z,53.46
2018-12-02T10:03:09.880Z,53.19
2018-12-02T10:04:13.364Z,54.08
2018-12-02T10:05:16.807Z,54.12
2018-12-02T10:06:20.250Z,53.29
2018-12-02T10:07:23.663Z,53.39
2018-12-02T10:08:27.094Z,53.57
2018-12-02T10:09:30.527Z,53.39
2018-12-02T10:10:34.081Z,53.21
2018-12-02T10:11:37.543Z,53.58
2018-12-02T10:12:41.274Z,52.61
2018-12-02T10:13:44.703Z,52.97
2018-12-02T10:14:48.201Z,52.99
2018-12-02T10:15:51.633Z,53.29
2018-12-02T10:16:55.128Z,53.02
2018-12-02T10:17:58.565Z,52.78
2018-12-02T10:19:02.089Z,53.49
2018-12-02T10:20:08.161Z,53.20
2018-12-02T10:21:12.447Z,53.54
2018-12-02T10:22:15.839Z,53.59
2018-12-02T10:23:19.343Z,53.43
2018-12-02T10:24:22.799Z,53.22
2018-12-02T10:25:26.294Z,54.43
2018-12-02T10:26:29.774Z,54.75
2018-12-02T10:27:33.187Z,54.32
2018-12-02T10:28:36.549Z,54.60
2018-12-02T10:29:39.978Z,54.34
2018-12-02T10:30:43.410Z,54.49
2018-12-02T10:31:46.981Z,53.67
2018-12-02T10:32:51.204Z,54.09
2018-12-02T10:33:54.773Z,53.33
2018-12-02T10:34:58.595Z,53.60
2018-12-02T10:36:02.634Z,54.14
2018-12-02T10:37:06.735Z,53.83
2018-12-02T10:38:10.526Z,53.57
2018-12-02T10:39:14.352Z,53.33
2018-12-02T10:40:21.772Z,53.54
2018-12-02T10:41:25.470Z,53.43
2018-12-02T10:42:29.481Z,53.32
2018-12-02T10:43:33.226Z,53.12
2018-12-02T10:44:36.853Z,53.33
2018-12-02T10:45:40.598Z,52.56
2018-12-02T10:46:44.551Z,52.76
2018-12-02T10:47:48.543Z,52.72
2018-12-02T10:48:52.159Z,53.40
2018-12-02T10:49:55.674Z,53.16
2018-12-02T10:50:59.045Z,53.60
2018-12-02T10:52:02.511Z,53.50
2018-12-02T10:53:10.255Z,53.12
2018-12-02T10:54:13.865Z,53.87
2018-12-02T10:55:35.322Z,53.41
2018-12-02T10:56:38.697Z,53.54
2018-12-02T10:57:42.273Z,53.86
2018-12-02T10:58:45.691Z,53.51
2018-12-02T10:59:49.567Z,53.66
2018-12-02T11:00:59.424Z,53.82
2018-12-02T11:02:08.091Z,53.77
2018-12-02T11:03:11.599Z,53.87
2018-12-02T11:04:15.072Z,53.29
2018-12-02T11:05:18.514Z,54.19
2018-12-02T11:06:21.960Z,53.50
2018-12-02T11:07:25.388Z,53.54
2018-12-02T11:08:28.902Z,54.17
2018-12-02T11:09:32.354Z,53.92
2018-12-02T11:10:35.787Z,53.92
2018-12-02T11:11:39.212Z,54.25
2018-12-02T11:12:42.626Z,54.34
2018-12-02T11:13:46.076Z,54.11
2018-12-02T11:14:49.521Z,54.16
2018-12-02T11:15:53.021Z,54.60
2018-12-02T11:16:56.652Z,54.23
2018-12-02T11:18:00.610Z,54.90
2018-12-02T11:19:04.145Z,54.59
2018-12-02T11:20:10.679Z,54.44
2018-12-02T11:21:14.093Z,54.79
2018-12-02T11:22:17.525Z,54.23
2018-12-02T11:23:20.920Z,54.56
2018-12-02T11:24:24.328Z,55.08
2018-12-02T11:25:27.798Z,54.41
2018-12-02T11:26:31.243Z,54.43
2018-12-02T11:27:34.809Z,54.51
2018-12-02T11:28:38.355Z,55.06
2018-12-02T11:29:42.848Z,54.77
2018-12-02T11:30:45.201Z,54.89
2018-12-02T11:31:48.638Z,55.17
2018-12-02T11:32:52.149Z,54.62
2018-12-02T11:33:55.607Z,54.98
2018-12-02T11:34:59.063Z,54.76
2018-12-02T11:36:02.465Z,54.90
2018-12-02T11:37:06.719Z,55.57
2018-12-02T11:38:10.268Z,55.47
2018-12-02T11:39:13.847Z,55.33
2018-12-02T11:40:22.184Z,55.37
2018-12-02T11:41:25.868Z,55.49
2018-12-02T11:42:29.306Z,55.53
2018-12-02T11:43:32.725Z,55.37
2018-12-02T11:44:36.197Z,55.91
2018-12-02T11:45:39.803Z,55.37
2018-12-02T11:46:43.357Z,55.77
2018-12-02T11:47:48.101Z,55.69
2018-12-02T11:48:51.669Z,55.86
2018-12-02T11:49:55.082Z,55.74
2018-12-02T11:50:58.524Z,55.96
2018-12-02T11:52:02.095Z,55.97
2018-12-02T11:53:06.445Z,55.22
2018-12-02T11:54:09.882Z,55.49
2018-12-02T11:55:14.620Z,55.54
2018-12-02T11:56:18.046Z,55.64
2018-12-02T11:57:26.439Z,56.08
2018-12-02T11:58:24.955Z,55.92
2018-12-02T11:59:28.372Z,55.54
2018-12-02T12:00:33.157Z,55.47
2018-12-02T12:01:36.567Z,56.07
2018-12-02T12:02:40.283Z,55.78
2018-12-02T12:03:43.765Z,55.89
2018-12-02T12:04:47.239Z,56.03
2018-12-02T12:05:51.198Z,55.95
2018-12-02T12:06:55.696Z,55.82
2018-12-02T12:07:59.146Z,55.97
2018-12-02T12:09:02.607Z,55.66
2018-12-02T12:10:09.238Z,55.74
2018-12-02T12:11:12.794Z,55.57
2018-12-02T12:12:16.327Z,55.92
2018-12-02T12:13:19.798Z,55.57
2018-12-02T12:14:23.309Z,55.62
2018-12-02T12:15:27.846Z,56.36
2018-12-02T12:16:31.285Z,56.07
2018-12-02T12:17:34.700Z,56.01
2018-12-02T12:18:38.111Z,56.12
2018-12-02T12:19:42.087Z,55.96
2018-12-02T12:20:45.101Z,55.65
2018-12-02T12:21:48.726Z,56.45
2018-12-02T12:22:52.196Z,56.02
2018-12-02T12:23:55.587Z,56.04
2018-12-02T12:24:59.019Z,56.42
2018-12-02T12:26:02.444Z,56.86
2018-12-02T12:27:05.830Z,56.35
2018-12-02T12:28:09.574Z,56.83
2018-12-02T12:29:13.001Z,56.46
2018-12-02T12:30:19.487Z,56.70
2018-12-02T12:31:22.918Z,56.71
2018-12-02T12:32:26.331Z,57.03
2018-12-02T12:33:29.737Z,57.11
2018-12-02T12:34:33.161Z,56.42
2018-12-02T12:35:37.827Z,56.84
2018-12-02T12:36:41.283Z,57.16
2018-12-02T12:37:44.726Z,56.76
2018-12-02T12:38:48.148Z,56.72
2018-12-02T12:39:51.586Z,57.02
2018-12-02T12:40:55.025Z,57.13
2018-12-02T12:41:58.478Z,56.97
2018-12-02T12:43:12.464Z,56.67
2018-12-02T12:44:15.899Z,57.04
2018-12-02T12:45:19.374Z,57.00
2018-12-02T12:46:22.804Z,57.01
2018-12-02T12:47:27.096Z,57.13
2018-12-02T12:48:30.514Z,57.67
2018-12-02T12:49:33.918Z,57.57
2018-12-02T12:50:37.547Z,57.17
2018-12-02T12:51:40.920Z,57.08
2018-12-02T12:52:44.370Z,58.20
2018-12-02T12:53:47.830Z,58.28
2018-12-02T12:54:51.282Z,58.04
2018-12-02T12:55:54.746Z,58.67
2018-12-02T12:56:58.185Z,58.18
2018-12-02T12:58:01.746Z,58.21
2018-12-02T12:59:05.669Z,58.79
2018-12-02T13:00:11.971Z,58.83
2018-12-02T13:01:15.408Z,58.24
2018-12-02T13:02:19.126Z,57.44
2018-12-02T13:03:22.621Z,57.85
2018-12-02T13:04:26.106Z,57.73
2018-12-02T13:05:29.518Z,58.30
2018-12-02T13:06:33.152Z,57.51
2018-12-02T13:07:36.607Z,57.44
2018-12-02T13:08:40.262Z,57.16
2018-12-02T13:09:43.654Z,56.85
2018-12-02T13:10:47.083Z,56.99
2018-12-02T13:11:50.526Z,56.17
2018-12-02T13:12:54.025Z,56.24
2018-12-02T13:13:57.503Z,56.21
2018-12-02T13:15:00.967Z,55.95
2018-12-02T13:16:04.547Z,55.77
2018-12-02T13:17:08.268Z,55.30
2018-12-02T13:18:12.335Z,55.41
2018-12-02T13:19:15.838Z,54.54
2018-12-02T13:20:19.644Z,54.48
2018-12-02T13:21:23.440Z,55.11
2018-12-02T13:22:26.904Z,54.54
2018-12-02T13:23:30.382Z,54.28
2018-12-02T13:24:33.781Z,54.22
2018-12-02T13:25:37.240Z,54.67
2018-12-02T13:26:40.740Z,53.87
2018-12-02T13:27:45.440Z,53.62
2018-12-02T13:28:48.885Z,53.74
2018-12-02T13:29:52.458Z,54.86
2018-12-02T13:30:55.988Z,54.45
2018-12-02T13:31:59.383Z,56.43
2018-12-02T13:33:02.853Z,58.06
2018-12-02T13:34:06.459Z,57.58
2018-12-02T13:35:10.742Z,56.27
2018-12-02T13:36:14.193Z,57.57
2018-12-02T13:37:17.612Z,56.25
2018-12-02T13:38:21.022Z,56.00
2018-12-02T13:39:24.510Z,55.31
2018-12-02T13:40:27.915Z,55.71
2018-12-02T13:41:31.349Z,55.85
2018-12-02T13:42:34.778Z,55.58
2018-12-02T13:43:38.276Z,55.22
2018-12-02T13:44:41.704Z,54.84
2018-12-02T13:45:45.657Z,54.18
2018-12-02T13:46:49.106Z,54.17
2018-12-02T13:47:52.892Z,53.64